Time;durP1;ratioP1;P1;durP2;ratioP2;P2;SDS_P1;SDS_P2;PMS_P1;PMS_P2;Temp;Humidity;BMP_temperature;BMP_pressure;BME280_temperature;BME280_humidity;BME280_pressure;Samples;Min_cycle;Max_cycle;Signal;HPM_P1;HPM_P2
2024/04/09 00:00:16;;;;;;;9.45;3.47;;;;;;;;;;5468483;26;20602;-50
2024/04/09 00:02:43;;;;;;;4.25;2.38;;;;;;;;;;5476607;26;20654;-48
2024/04/09 00:05:13;;;;;;;6.30;2.45;;;;;;;;;;5474438;26;20210;-49
2024/04/09 00:07:39;;;;;;;7.57;3.00;;;;;;;;;;5460655;26;20225;-49
2024/04/09 00:10:13;;;;;;;7.97;3.17;;;;;;;;;;5460708;26;20214;-49
2024/04/09 00:12:39;;;;;;;7.63;2.60;;;;;;;;;;5460604;26;20229;-51
2024/04/09 00:15:09;;;;;;;10.20;3.35;;;;;;;;;;5474364;26;20233;-51
2024/04/09 00:17:44;;;;;;;4.68;2.72;;;;;;;;;;5453250;26;20222;-49
2024/04/09 00:20:18;;;;;;;5.43;2.53;;;;;;;;;;5453275;26;20233;-53
2024/04/09 00:22:45;;;;;;;2.88;1.80;;;;;;;;;;5452965;26;20277;-49
2024/04/09 00:25:18;;;;;;;9.38;2.42;;;;;;;;;;5453578;26;20252;-52
2024/04/09 00:27:45;;;;;;;9.10;3.25;;;;;;;;;;5465692;26;20314;-52
2024/04/09 00:30:17;;;;;;;6.32;2.03;;;;;;;;;;5453043;26;20704;-53
2024/04/09 00:32:44;;;;;;;8.02;2.42;;;;;;;;;;5467865;26;20241;-49
2024/04/09 00:35:14;;;;;;;3.65;2.55;;;;;;;;;;5467969;26;20714;-51
2024/04/09 00:37:41;;;;;;;6.50;3.17;;;;;;;;;;5460699;26;20221;-49
2024/04/09 00:40:13;;;;;;;5.95;2.20;;;;;;;;;;5459426;26;20218;-49
2024/04/09 00:42:42;;;;;;;6.28;2.65;;;;;;;;;;5460348;26;20229;-49
2024/04/09 00:45:11;;;;;;;8.65;3.67;;;;;;;;;;5459206;26;20226;-49
2024/04/09 00:47:38;;;;;;;4.50;1.90;;;;;;;;;;5475028;26;20224;-49
2024/04/09 00:50:11;;;;;;;3.75;2.20;;;;;;;;;;5474862;26;21060;-49
2024/04/09 00:52:38;;;;;;;8.82;3.55;;;;;;;;;;5467556;26;20230;-50
2024/04/09 00:55:08;;;;;;;7.65;3.30;;;;;;;;;;5466164;26;20252;-48
2024/04/09 00:57:36;;;;;;;9.13;3.55;;;;;;;;;;5452654;26;20230;-49
2024/04/09 01:00:12;;;;;;;8.15;4.30;;;;;;;;;;5452478;26;20995;-49
2024/04/09 01:02:41;;;;;;;6.50;2.70;;;;;;;;;;5452313;26;20346;-49
2024/04/09 01:05:12;;;;;;;13.32;3.28;;;;;;;;;;5467464;26;20253;-49
2024/04/09 01:07:39;;;;;;;5.50;2.63;;;;;;;;;;5452405;26;20230;-48
2024/04/09 01:10:08;;;;;;;7.13;3.03;;;;;;;;;;5466160;26;20237;-52
2024/04/09 01:12:35;;;;;;;4.53;2.13;;;;;;;;;;5458588;26;20233;-54
2024/04/09 01:15:10;;;;;;;4.55;2.65;;;;;;;;;;5475513;26;20264;-53
2024/04/09 01:17:36;;;;;;;5.63;2.17;;;;;;;;;;5467543;26;20574;-49
2024/04/09 01:20:07;;;;;;;4.80;2.00;;;;;;;;;;5452144;26;20619;-52
2024/04/09 01:22:37;;;;;;;8.60;3.05;;;;;;;;;;5467301;26;20302;-50
2024/04/09 01:25:10;;;;;;;10.60;4.05;;;;;;;;;;5466932;26;20290;-49
2024/04/09 01:27:37;;;;;;;4.47;2.33;;;;;;;;;;5452147;26;20222;-48
2024/04/09 01:30:08;;;;;;;7.07;2.40;;;;;;;;;;5467176;26;20587;-49
2024/04/09 01:32:36;;;;;;;14.77;5.18;;;;;;;;;;5473192;26;20276;-52
2024/04/09 01:35:06;;;;;;;18.33;3.30;;;;;;;;;;5459886;26;20264;-49
2024/04/09 01:37:36;;;;;;;6.07;2.67;;;;;;;;;;5467173;26;20273;-48
2024/04/09 01:40:07;;;;;;;4.18;2.60;;;;;;;;;;5466928;26;20238;-50
2024/04/09 01:42:33;;;;;;;7.93;3.08;;;;;;;;;;5466679;26;20334;-51
2024/04/09 01:45:02;;;;;;;6.57;2.83;;;;;;;;;;5464189;26;20263;-50
2024/04/09 01:47:30;;;;;;;7.60;3.88;;;;;;;;;;5468594;26;20261;-48
2024/04/09 01:49:59;;;;;;;7.35;3.45;;;;;;;;;;5451923;26;20330;-49
2024/04/09 01:52:26;;;;;;;4.07;1.88;;;;;;;;;;5466945;26;20363;-49
2024/04/09 01:54:58;;;;;;;4.35;2.70;;;;;;;;;;5451561;26;20260;-51
2024/04/09 01:57:29;;;;;;;6.07;2.83;;;;;;;;;;5470517;26;20281;-50
2024/04/09 01:59:59;;;;;;;5.20;2.30;;;;;;;;;;5461695;26;20570;-49
2024/04/09 02:02:25;;;;;;;9.77;3.20;;;;;;;;;;5468694;26;20743;-50
2024/04/09 02:04:55;;;;;;;11.70;2.85;;;;;;;;;;5472671;26;20229;-49
2024/04/09 02:07:21;;;;;;;12.43;4.20;;;;;;;;;;5455528;26;20796;-51
2024/04/09 02:09:52;;;;;;;9.70;3.58;;;;;;;;;;5451582;26;20215;-53
2024/04/09 02:12:21;;;;;;;7.78;3.15;;;;;;;;;;5451320;26;20253;-49
2024/04/09 02:14:51;;;;;;;8.80;3.97;;;;;;;;;;5461148;26;20743;-52
2024/04/09 02:17:18;;;;;;;6.43;2.80;;;;;;;;;;5470978;26;20241;-49
2024/04/09 02:19:47;;;;;;;11.25;5.20;;;;;;;;;;5451390;26;20248;-48
2024/04/09 02:22:13;;;;;;;5.43;2.65;;;;;;;;;;5481185;26;20272;-49
2024/04/09 02:24:42;;;;;;;11.95;3.25;;;;;;;;;;5450991;26;20742;-51
2024/04/09 02:27:09;;;;;;;10.98;2.97;;;;;;;;;;5466493;26;20229;-49
2024/04/09 02:29:41;;;;;;;9.43;2.90;;;;;;;;;;5466195;26;20324;-49
2024/04/09 02:32:07;;;;;;;4.45;2.00;;;;;;;;;;5466254;26;20230;-50
2024/04/09 02:34:37;;;;;;;4.72;2.45;;;;;;;;;;5465906;26;20474;-51
2024/04/09 02:37:04;;;;;;;4.95;2.03;;;;;;;;;;5466176;26;20226;-49
2024/04/09 02:39:33;;;;;;;5.35;2.40;;;;;;;;;;5471208;26;20240;-49
2024/04/09 02:42:03;;;;;;;8.82;2.83;;;;;;;;;;5459723;26;20333;-54
2024/04/09 02:44:32;;;;;;;6.00;2.90;;;;;;;;;;5465882;26;20327;-52
2024/04/09 02:47:02;;;;;;;6.40;2.60;;;;;;;;;;5466179;26;20249;-50
2024/04/09 02:49:31;;;;;;;8.90;3.05;;;;;;;;;;5466053;26;20241;-52
2024/04/09 02:51:57;;;;;;;3.28;2.40;;;;;;;;;;5465717;26;20289;-49
2024/04/09 02:54:28;;;;;;;9.38;3.70;;;;;;;;;;5454352;26;20747;-50
2024/04/09 02:56:54;;;;;;;4.00;2.00;;;;;;;;;;5472171;26;20799;-51
2024/04/09 02:59:23;;;;;;;4.22;1.75;;;;;;;;;;5472125;26;20221;-48
2024/04/09 03:01:51;;;;;;;3.83;1.80;;;;;;;;;;5477100;26;20230;-50
2024/04/09 03:04:22;;;;;;;5.07;2.58;;;;;;;;;;5467191;26;20716;-51
2024/04/09 03:06:49;;;;;;;8.65;2.53;;;;;;;;;;5487174;26;20276;-48
2024/04/09 03:09:18;;;;;;;4.97;2.25;;;;;;;;;;5472036;26;20274;-48
2024/04/09 03:11:45;;;;;;;6.05;2.72;;;;;;;;;;5478197;26;20803;-49
2024/04/09 03:14:14;;;;;;;3.72;1.90;;;;;;;;;;5469835;26;20910;-49
2024/04/09 03:16:40;;;;;;;5.13;1.77;;;;;;;;;;5453623;26;20234;-50
2024/04/09 03:19:10;;;;;;;7.22;2.80;;;;;;;;;;5462086;26;20801;-48
2024/04/09 03:21:39;;;;;;;5.35;2.50;;;;;;;;;;5463497;26;20226;-51
2024/04/09 03:24:09;;;;;;;2.78;1.60;;;;;;;;;;5453364;26;20221;-50
2024/04/09 03:26:36;;;;;;;7.55;3.97;;;;;;;;;;5458614;26;20226;-50
2024/04/09 03:29:05;;;;;;;4.95;2.20;;;;;;;;;;5462752;26;20225;-50
2024/04/09 03:31:32;;;;;;;5.60;2.33;;;;;;;;;;5453298;26;20269;-48
2024/04/09 03:34:01;;;;;;;2.53;1.67;;;;;;;;;;5454972;26;20256;-49
2024/04/09 03:36:28;;;;;;;9.90;3.08;;;;;;;;;;5459469;26;20229;-49
2024/04/09 03:38:59;;;;;;;3.30;1.83;;;;;;;;;;5469008;26;20230;-48
2024/04/09 03:41:29;;;;;;;8.82;2.58;;;;;;;;;;5455314;26;20226;-48
2024/04/09 03:43:55;;;;;;;8.77;3.13;;;;;;;;;;5458294;26;20230;-48
2024/04/09 03:46:24;;;;;;;5.95;2.70;;;;;;;;;;5461159;26;20234;-49
2024/04/09 03:48:51;;;;;;;6.05;2.83;;;;;;;;;;5457866;26;20929;-48
2024/04/09 03:51:20;;;;;;;4.25;3.20;;;;;;;;;;5484882;26;20225;-49
2024/04/09 03:53:47;;;;;;;12.13;3.63;;;;;;;;;;5465062;26;20230;-49
2024/04/09 03:56:19;;;;;;;5.03;2.45;;;;;;;;;;5458398;26;20256;-48
2024/04/09 03:58:47;;;;;;;2.83;1.77;;;;;;;;;;5476290;26;20253;-49
2024/04/09 04:01:17;;;;;;;6.35;2.72;;;;;;;;;;5452710;26;20234;-48
2024/04/09 04:03:46;;;;;;;5.75;2.85;;;;;;;;;;5457206;26;20226;-51
2024/04/09 04:06:16;;;;;;;4.63;2.10;;;;;;;;;;5468016;26;20276;-50
2024/04/09 04:08:43;;;;;;;7.78;2.95;;;;;;;;;;5463681;26;20277;-50
2024/04/09 04:11:14;;;;;;;5.30;2.58;;;;;;;;;;5478604;26;20229;-49
2024/04/09 04:13:43;;;;;;;7.15;2.03;;;;;;;;;;5471040;26;20217;-51
2024/04/09 04:16:14;;;;;;;3.75;1.90;;;;;;;;;;5458881;26;20287;-50
2024/04/09 04:18:42;;;;;;;7.85;2.22;;;;;;;;;;5452842;26;20226;-48
2024/04/09 04:21:15;;;;;;;3.78;2.10;;;;;;;;;;5467378;26;20227;-48
2024/04/09 04:23:41;;;;;;;7.70;3.60;;;;;;;;;;5457163;26;20671;-48
2024/04/09 04:26:12;;;;;;;6.80;2.05;;;;;;;;;;5451178;26;20294;-48
2024/04/09 04:28:42;;;;;;;8.70;2.83;;;;;;;;;;5452216;26;20223;-49
2024/04/09 04:31:13;;;;;;;12.40;4.95;;;;;;;;;;5452003;26;20289;-49
2024/04/09 04:33:41;;;;;;;9.07;3.80;;;;;;;;;;5452000;26;20721;-48
2024/04/09 04:36:12;;;;;;;7.55;2.90;;;;;;;;;;5467265;26;20226;-50
2024/04/09 04:38:40;;;;;;;8.85;2.95;;;;;;;;;;5459313;26;20267;-50
2024/04/09 04:41:10;;;;;;;5.45;2.42;;;;;;;;;;5469622;26;20226;-47
2024/04/09 04:43:38;;;;;;;4.95;2.75;;;;;;;;;;5451724;26;20751;-49
2024/04/09 04:46:10;;;;;;;5.28;2.10;;;;;;;;;;5465987;26;20233;-50
2024/04/09 04:48:38;;;;;;;6.47;3.65;;;;;;;;;;5473909;26;20229;-50
2024/04/09 04:51:08;;;;;;;9.82;3.10;;;;;;;;;;5455193;26;20234;-48
2024/04/09 04:53:35;;;;;;;7.10;3.58;;;;;;;;;;5451484;26;20581;-51
2024/04/09 04:56:04;;;;;;;7.88;2.65;;;;;;;;;;5451922;26;20823;-47
2024/04/09 04:58:30;;;;;;;12.88;4.10;;;;;;;;;;5462812;26;20238;-48
2024/04/09 05:01:00;;;;;;;9.50;3.70;;;;;;;;;;5451502;26;20261;-48
2024/04/09 05:03:29;;;;;;;6.93;2.67;;;;;;;;;;5455108;26;20226;-52
2024/04/09 05:05:58;;;;;;;11.75;3.17;;;;;;;;;;5457639;26;20222;-51
2024/04/09 05:08:24;;;;;;;4.45;2.15;;;;;;;;;;5451867;26;20269;-49
2024/04/09 05:10:53;;;;;;;9.65;2.47;;;;;;;;;;5451537;26;20277;-48
2024/04/09 05:13:21;;;;;;;14.82;3.42;;;;;;;;;;5453929;26;20987;-48
2024/04/09 05:15:50;;;;;;;8.95;3.28;;;;;;;;;;5459433;26;20272;-48
2024/04/09 05:18:16;;;;;;;5.90;2.95;;;;;;;;;;5453490;26;20230;-49
2024/04/09 05:20:48;;;;;;;7.50;3.67;;;;;;;;;;5468718;26;20283;-48
2024/04/09 05:23:15;;;;;;;14.07;4.88;;;;;;;;;;5468517;26;20271;-50
2024/04/09 05:25:44;;;;;;;10.75;3.38;;;;;;;;;;5461186;26;20262;-52
2024/04/09 05:28:10;;;;;;;7.97;2.50;;;;;;;;;;5451338;26;20230;-48
2024/04/09 05:30:39;;;;;;;6.95;3.22;;;;;;;;;;5462496;26;20234;-50
2024/04/09 05:33:06;;;;;;;5.57;2.97;;;;;;;;;;5450898;26;20226;-52
2024/04/09 05:35:35;;;;;;;11.07;3.72;;;;;;;;;;5451439;26;20339;-48
2024/04/09 05:38:04;;;;;;;15.20;4.60;;;;;;;;;;5451341;26;20256;-49
2024/04/09 05:40:34;;;;;;;13.30;4.60;;;;;;;;;;5451365;26;20324;-48
2024/04/09 05:43:00;;;;;;;14.02;4.00;;;;;;;;;;5450956;26;20226;-53
2024/04/09 05:45:29;;;;;;;13.57;3.42;;;;;;;;;;5459473;26;20224;-49
2024/04/09 05:47:56;;;;;;;20.73;5.72;;;;;;;;;;5471875;26;20229;-47
2024/04/09 05:50:25;;;;;;;16.88;4.72;;;;;;;;;;5451275;26;20291;-50
2024/04/09 05:52:52;;;;;;;21.77;6.53;;;;;;;;;;5450881;26;20242;-49
2024/04/09 05:55:24;;;;;;;14.30;4.70;;;;;;;;;;5450850;26;20234;-47
2024/04/09 05:57:50;;;;;;;10.50;3.47;;;;;;;;;;5462276;26;20230;-49
2024/04/09 06:00:21;;;;;;;11.30;3.78;;;;;;;;;;5465926;26;20265;-50
2024/04/09 06:02:48;;;;;;;9.77;3.78;;;;;;;;;;5450642;26;20701;-52
2024/04/09 06:05:18;;;;;;;9.77;4.15;;;;;;;;;;5462239;26;20230;-48
2024/04/09 06:07:45;;;;;;;10.88;3.72;;;;;;;;;;5451143;26;20625;-51
2024/04/09 06:10:15;;;;;;;7.60;3.70;;;;;;;;;;5465805;26;20225;-51
2024/04/09 06:12:47;;;;;;;12.15;3.70;;;;;;;;;;5462538;26;20225;-48
2024/04/09 06:15:13;;;;;;;8.38;3.22;;;;;;;;;;5456234;26;20261;-51
2024/04/09 06:17:43;;;;;;;11.02;4.15;;;;;;;;;;5450996;26;20290;-50
2024/04/09 06:20:09;;;;;;;8.35;3.75;;;;;;;;;;5461868;26;20272;-49
2024/04/09 06:22:38;;;;;;;10.40;3.33;;;;;;;;;;5456900;26;20601;-47
2024/04/09 06:25:06;;;;;;;7.20;3.42;;;;;;;;;;5454430;26;21026;-51
2024/04/09 06:27:35;;;;;;;10.30;3.08;;;;;;;;;;5450620;26;20230;-49
2024/04/09 06:30:07;;;;;;;9.45;3.08;;;;;;;;;;5476910;26;20221;-51
2024/04/09 06:32:36;;;;;;;5.65;3.25;;;;;;;;;;5456004;26;20986;-50
2024/04/09 06:35:02;;;;;;;24.77;3.80;;;;;;;;;;5454838;26;20577;-49
2024/04/09 06:37:34;;;;;;;10.20;3.90;;;;;;;;;;5450561;26;20269;-47
2024/04/09 06:40:00;;;;;;;6.47;3.53;;;;;;;;;;5462891;26;20225;-50
2024/04/09 06:42:30;;;;;;;5.88;3.03;;;;;;;;;;5468338;26;20234;-51
2024/04/09 06:44:56;;;;;;;11.82;3.10;;;;;;;;;;5461958;26;20230;-51
2024/04/09 06:47:28;;;;;;;8.23;4.30;;;;;;;;;;5468485;26;20237;-47
2024/04/09 06:49:55;;;;;;;12.27;4.45;;;;;;;;;;5487245;26;20213;-48
2024/04/09 06:52:24;;;;;;;9.02;2.75;;;;;;;;;;5465320;26;20291;-48
2024/04/09 06:54:50;;;;;;;9.38;3.80;;;;;;;;;;5460522;26;20263;-52
2024/04/09 06:57:19;;;;;;;9.93;3.03;;;;;;;;;;5485530;26;20321;-47
2024/04/09 06:59:47;;;;;;;10.82;4.60;;;;;;;;;;5474862;26;20272;-48
2024/04/09 07:02:16;;;;;;;5.45;3.33;;;;;;;;;;5482247;26;20229;-49
2024/04/09 07:04:45;;;;;;;8.32;2.95;;;;;;;;;;5465564;26;20227;-48
2024/04/09 07:07:14;;;;;;;5.70;2.75;;;;;;;;;;5469354;26;20333;-51
2024/04/09 07:09:41;;;;;;;9.30;3.65;;;;;;;;;;5486709;26;20213;-49
2024/04/09 07:12:10;;;;;;;9.60;3.28;;;;;;;;;;5486506;26;20225;-48
2024/04/09 07:14:37;;;;;;;5.88;2.53;;;;;;;;;;5471640;26;20237;-49
2024/04/09 07:17:06;;;;;;;6.68;3.63;;;;;;;;;;5467918;26;20234;-48
2024/04/09 07:19:33;;;;;;;8.35;2.40;;;;;;;;;;5463608;26;20225;-51
2024/04/09 07:22:05;;;;;;;8.75;3.00;;;;;;;;;;5456134;26;20242;-49
2024/04/09 07:24:32;;;;;;;7.75;3.25;;;;;;;;;;5477498;26;20302;-48
2024/04/09 07:27:02;;;;;;;6.88;2.67;;;;;;;;;;5449970;26;20260;-50
2024/04/09 07:29:31;;;;;;;8.38;2.70;;;;;;;;;;5450145;26;20306;-49
2024/04/09 07:32:00;;;;;;;8.95;2.85;;;;;;;;;;5453186;26;20242;-52
2024/04/09 07:34:26;;;;;;;5.40;2.40;;;;;;;;;;5468622;26;20257;-50
2024/04/09 07:36:55;;;;;;;8.13;2.80;;;;;;;;;;5468602;26;20822;-52
2024/04/09 07:39:24;;;;;;;6.32;2.70;;;;;;;;;;5453298;26;20269;-49
2024/04/09 07:41:53;;;;;;;4.82;2.47;;;;;;;;;;5464688;26;20761;-49
2024/04/09 07:44:20;;;;;;;5.18;2.03;;;;;;;;;;5449661;26;20226;-50
2024/04/09 07:46:50;;;;;;;6.22;2.67;;;;;;;;;;5464621;26;20249;-48
2024/04/09 07:49:18;;;;;;;6.43;2.28;;;;;;;;;;5468103;26;20222;-51
2024/04/09 07:51:48;;;;;;;6.53;2.75;;;;;;;;;;5467925;26;20234;-50
2024/04/09 07:54:14;;;;;;;4.53;1.90;;;;;;;;;;5457144;26;20226;-48
2024/04/09 07:56:46;;;;;;;4.97;2.25;;;;;;;;;;5459770;26;20223;-49
2024/04/09 07:59:12;;;;;;;9.85;2.30;;;;;;;;;;5461121;26;20226;-49
2024/04/09 08:01:42;;;;;;;7.85;1.92;;;;;;;;;;5467590;26;20602;-49
2024/04/09 08:04:08;;;;;;;3.58;1.90;;;;;;;;;;5474173;26;20573;-49
2024/04/09 08:06:37;;;;;;;8.25;2.70;;;;;;;;;;5465111;26;20296;-48
2024/04/09 08:09:04;;;;;;;7.35;2.30;;;;;;;;;;5454857;26;20230;-49
2024/04/09 08:11:34;;;;;;;4.75;1.55;;;;;;;;;;5474895;26;20334;-49
2024/04/09 08:14:03;;;;;;;6.20;2.15;;;;;;;;;;5461630;26;20260;-50
2024/04/09 08:16:32;;;;;;;4.57;1.60;;;;;;;;;;5452858;26;20599;-51
2024/04/09 08:18:58;;;;;;;1.70;1.42;;;;;;;;;;5468033;26;20554;-49
2024/04/09 08:21:28;;;;;;;2.55;1.65;;;;;;;;;;5474050;26;20229;-51
2024/04/09 08:23:54;;;;;;;3.75;1.73;;;;;;;;;;5488990;26;20271;-50
2024/04/09 08:26:23;;;;;;;4.78;2.15;;;;;;;;;;5486860;26;20730;-49
2024/04/09 08:28:50;;;;;;;6.13;2.20;;;;;;;;;;5455905;26;20570;-52
2024/04/09 08:31:31;;;;;;;3.05;2.03;;;;;;;;;;5470849;26;20226;-48
2024/04/09 08:33:58;;;;;;;2.83;1.40;;;;;;;;;;5479459;26;20229;-49
2024/04/09 08:36:27;;;;;;;1.50;1.25;;;;;;;;;;5482858;26;20257;-49
2024/04/09 08:38:55;;;;;;;4.45;2.17;;;;;;;;;;5463010;26;20229;-51
2024/04/09 08:41:24;;;;;;;2.65;2.10;;;;;;;;;;5452745;26;20659;-51
2024/04/09 08:43:50;;;;;;;5.75;2.53;;;;;;;;;;5452499;26;20210;-50
2024/04/09 08:46:23;;;;;;;3.88;1.58;;;;;;;;;;5484062;26;20217;-50
2024/04/09 08:48:51;;;;;;;4.70;1.63;;;;;;;;;;5463971;26;20239;-50
2024/04/09 08:51:20;;;;;;;7.45;3.05;;;;;;;;;;5452457;26;20238;-50
2024/04/09 08:53:47;;;;;;;5.88;2.53;;;;;;;;;;5464007;26;20214;-49
2024/04/09 08:56:16;;;;;;;5.28;2.03;;;;;;;;;;5458522;26;20235;-51
2024/04/09 08:58:43;;;;;;;3.92;2.08;;;;;;;;;;5463980;26;20622;-48
2024/04/09 09:01:13;;;;;;;5.10;1.65;;;;;;;;;;5468880;26;20275;-49
2024/04/09 09:03:42;;;;;;;2.72;1.63;;;;;;;;;;5477686;26;20821;-50
2024/04/09 09:06:12;;;;;;;4.85;1.65;;;;;;;;;;5470652;26;20237;-52
2024/04/09 09:08:41;;;;;;;5.80;1.50;;;;;;;;;;5462271;26;20225;-53
2024/04/09 09:11:11;;;;;;;3.60;1.83;;;;;;;;;;5487867;26;20767;-51
2024/04/09 09:13:37;;;;;;;4.30;1.33;;;;;;;;;;5481757;26;20281;-51
2024/04/09 09:16:11;;;;;;;7.25;3.05;;;;;;;;;;5452011;26;20728;-50
2024/04/09 09:18:38;;;;;;;4.72;1.85;;;;;;;;;;5452039;26;20289;-50
2024/04/09 09:21:11;;;;;;;4.30;1.80;;;;;;;;;;5463614;26;20588;-50
2024/04/09 09:23:37;;;;;;;2.25;1.73;;;;;;;;;;5458632;26;20325;-49
2024/04/09 09:26:08;;;;;;;4.15;1.58;;;;;;;;;;5471966;26;20217;-52
2024/04/09 09:28:34;;;;;;;5.15;2.30;;;;;;;;;;5466743;26;20756;-52
2024/04/09 09:31:03;;;;;;;1.67;1.33;;;;;;;;;;5469800;26;20776;-50
2024/04/09 09:33:30;;;;;;;2.42;1.35;;;;;;;;;;5459427;26;20238;-52
2024/04/09 09:36:00;;;;;;;2.80;0.98;;;;;;;;;;5476710;26;20282;-49
2024/04/09 09:38:29;;;;;;;2.28;1.20;;;;;;;;;;5451793;26;20222;-50
2024/04/09 09:41:00;;;;;;;1.17;0.85;;;;;;;;;;5451602;26;20786;-49
2024/04/09 09:43:26;;;;;;;2.65;1.40;;;;;;;;;;5451546;26;20276;-51
2024/04/09 09:45:55;;;;;;;2.55;1.42;;;;;;;;;;5451826;26;20334;-52
2024/04/09 09:48:24;;;;;;;0.95;0.73;;;;;;;;;;5472410;26;20225;-49
2024/04/09 09:50:53;;;;;;;1.50;1.20;;;;;;;;;;5477793;26;20724;-50
2024/04/09 09:53:21;;;;;;;1.60;1.23;;;;;;;;;;5451529;26;20221;-49
2024/04/09 09:55:55;;;;;;;1.65;1.30;;;;;;;;;;5460535;26;20229;-49
2024/04/09 09:58:25;;;;;;;0.77;0.70;;;;;;;;;;5470242;26;20222;-49
2024/04/09 10:00:55;;;;;;;1.08;0.85;;;;;;;;;;5488011;26;20259;-51
2024/04/09 10:03:22;;;;;;;3.30;2.10;;;;;;;;;;5467138;26;20218;-50
2024/04/09 10:05:52;;;;;;;1.80;1.00;;;;;;;;;;5466406;26;20222;-49
2024/04/09 10:08:19;;;;;;;1.48;1.20;;;;;;;;;;5474133;26;20232;-49
2024/04/09 10:10:54;;;;;;;1.65;1.40;;;;;;;;;;5475996;26;20218;-49
2024/04/09 10:13:23;;;;;;;3.95;1.27;;;;;;;;;;5481373;26;20225;-49
2024/04/09 10:15:53;;;;;;;1.80;1.60;;;;;;;;;;5476092;26;20663;-53
2024/04/09 10:18:33;;;;;;;2.40;0.90;;;;;;;;;;5464450;26;20230;-52
2024/04/09 10:21:03;;;;;;;2.72;1.42;;;;;;;;;;5481308;26;20349;-52
2024/04/09 10:23:35;;;;;;;2.55;1.40;;;;;;;;;;5466181;26;20270;-49
2024/04/09 10:26:08;;;;;;;4.47;1.17;;;;;;;;;;5463631;26;20763;-49
2024/04/09 10:28:35;;;;;;;0.90;0.80;;;;;;;;;;5451236;26;20233;-50
2024/04/09 10:31:08;;;;;;;1.13;0.70;;;;;;;;;;5459764;26;20271;-48
2024/04/09 10:33:36;;;;;;;1.48;0.73;;;;;;;;;;5472384;26;20649;-48
2024/04/09 10:36:09;;;;;;;1.55;0.70;;;;;;;;;;5472238;26;20290;-50
2024/04/09 10:38:38;;;;;;;1.50;0.88;;;;;;;;;;5463163;26;20614;-50
2024/04/09 10:41:10;;;;;;;0.60;0.60;;;;;;;;;;5453274;26;20241;-49
2024/04/09 10:43:37;;;;;;;0.85;0.50;;;;;;;;;;5459856;26;20246;-48
2024/04/09 10:46:06;;;;;;;1.52;0.82;;;;;;;;;;5486197;26;20305;-48
2024/04/09 10:48:33;;;;;;;1.15;0.70;;;;;;;;;;5483526;26;20346;-51
2024/04/09 10:51:03;;;;;;;1.58;0.63;;;;;;;;;;5471856;26;20334;-50
2024/04/09 10:53:29;;;;;;;2.22;0.80;;;;;;;;;;5457578;26;20226;-53
2024/04/09 10:56:05;;;;;;;0.65;0.65;;;;;;;;;;5472599;26;20594;-52
2024/04/09 10:58:38;;;;;;;1.33;0.65;;;;;;;;;;5453134;26;20260;-48
2024/04/09 11:01:12;;;;;;;0.60;0.60;;;;;;;;;;5466342;26;20284;-51
2024/04/09 11:03:39;;;;;;;0.85;0.55;;;;;;;;;;5450423;26;20210;-51
2024/04/09 11:06:08;;;;;;;2.28;0.88;;;;;;;;;;5453150;26;20269;-50
2024/04/09 11:08:34;;;;;;;0.60;0.60;;;;;;;;;;5468179;26;20732;-48
2024/04/09 11:11:04;;;;;;;0.45;0.45;;;;;;;;;;5452860;26;20241;-49
2024/04/09 11:13:34;;;;;;;0.80;0.40;;;;;;;;;;5467778;26;20221;-48
2024/04/09 11:16:04;;;;;;;1.67;0.70;;;;;;;;;;5450230;26;20598;-49
2024/04/09 11:18:31;;;;;;;0.47;0.47;;;;;;;;;;5477871;26;20804;-49
2024/04/09 11:21:03;;;;;;;0.65;0.65;;;;;;;;;;5450068;26;20738;-49
2024/04/09 11:23:31;;;;;;;0.60;0.60;;;;;;;;;;5450125;26;20218;-53
2024/04/09 11:26:02;;;;;;;0.52;0.52;;;;;;;;;;5464558;26;20269;-50
2024/04/09 11:28:30;;;;;;;0.63;0.63;;;;;;;;;;5450003;26;20226;-51
2024/04/09 11:31:04;;;;;;;0.60;0.60;;;;;;;;;;5449968;26;20261;-49
2024/04/09 11:33:31;;;;;;;0.30;0.30;;;;;;;;;;5477581;26;20244;-49
2024/04/09 11:36:02;;;;;;;0.40;0.40;;;;;;;;;;5482813;26;20224;-49
2024/04/09 11:38:28;;;;;;;0.13;0.13;;;;;;;;;;5468040;26;20226;-53
2024/04/09 11:40:58;;;;;;;0.20;0.20;;;;;;;;;;5481901;26;20229;-48
2024/04/09 11:43:24;;;;;;;1.15;1.05;;;;;;;;;;5472302;26;20227;-50
2024/04/09 11:45:53;;;;;;;0.98;0.95;;;;;;;;;;5462538;26;20257;-53
2024/04/09 11:48:23;;;;;;;0.43;0.43;;;;;;;;;;5468406;26;20267;-51
2024/04/09 11:50:52;;;;;;;0.30;0.30;;;;;;;;;;5465358;26;20216;-53
2024/04/09 11:53:19;;;;;;;0.40;0.40;;;;;;;;;;5457676;26;20210;-49
2024/04/09 11:55:48;;;;;;;0.40;0.40;;;;;;;;;;5453050;26;20274;-48
2024/04/09 11:58:16;;;;;;;0.75;0.43;;;;;;;;;;5471652;26;20728;-50
2024/04/09 12:00:45;;;;;;;0.20;0.20;;;;;;;;;;5479366;26;20672;-49
2024/04/09 12:03:11;;;;;;;0.50;0.50;;;;;;;;;;5482212;26;20603;-48
2024/04/09 12:05:43;;;;;;;2.45;0.40;;;;;;;;;;5453190;26;20234;-48
2024/04/09 12:08:10;;;;;;;0.30;0.30;;;;;;;;;;5455528;26;20210;-48
2024/04/09 12:10:39;;;;;;;0.32;0.32;;;;;;;;;;5453042;26;20327;-50
2024/04/09 12:13:05;;;;;;;0.30;0.30;;;;;;;;;;5470358;26;20214;-48
2024/04/09 12:15:34;;;;;;;1.10;0.40;;;;;;;;;;5452858;26;20720;-48
2024/04/09 12:18:01;;;;;;;0.40;0.35;;;;;;;;;;5467710;26;20225;-47
2024/04/09 12:20:30;;;;;;;0.68;0.30;;;;;;;;;;5455170;26;20628;-48
2024/04/09 12:22:59;;;;;;;0.15;0.15;;;;;;;;;;5481450;26;20229;-51
2024/04/09 12:25:28;;;;;;;1.08;0.40;;;;;;;;;;5485658;26;20268;-51
2024/04/09 12:27:55;;;;;;;0.93;0.50;;;;;;;;;;5468503;26;20637;-54
2024/04/09 12:30:24;;;;;;;0.35;0.35;;;;;;;;;;5489175;26;20272;-52
2024/04/09 12:32:50;;;;;;;0.60;0.55;;;;;;;;;;5474154;26;20296;-50
2024/04/09 12:35:21;;;;;;;0.95;0.63;;;;;;;;;;5457369;26;20739;-49
2024/04/09 12:37:48;;;;;;;0.30;0.30;;;;;;;;;;5465469;26;20346;-49
2024/04/09 12:40:20;;;;;;;0.40;0.40;;;;;;;;;;5452696;26;20788;-49
2024/04/09 12:42:49;;;;;;;0.70;0.63;;;;;;;;;;5452544;26;20277;-49
2024/04/09 12:45:18;;;;;;;0.35;0.35;;;;;;;;;;5455246;26;20269;-49
2024/04/09 12:47:45;;;;;;;1.55;0.55;;;;;;;;;;5486591;26;20267;-47
2024/04/09 12:50:14;;;;;;;0.82;0.63;;;;;;;;;;5456497;26;20663;-48
2024/04/09 12:52:41;;;;;;;0.50;0.50;;;;;;;;;;5461985;26;20268;-51
2024/04/09 12:55:10;;;;;;;0.40;0.40;;;;;;;;;;5459752;26;20222;-50
2024/04/09 12:57:39;;;;;;;0.50;0.50;;;;;;;;;;5452394;26;20268;-50
2024/04/09 13:00:10;;;;;;;0.43;0.43;;;;;;;;;;5453157;26;20343;-50
2024/04/09 13:02:37;;;;;;;1.33;0.57;;;;;;;;;;5465249;26;20226;-49
2024/04/09 13:05:11;;;;;;;0.50;0.50;;;;;;;;;;5454119;26;20218;-48
2024/04/09 13:07:38;;;;;;;0.93;0.60;;;;;;;;;;5473986;26;20251;-48
2024/04/09 13:10:08;;;;;;;1.08;0.45;;;;;;;;;;5473285;26;20319;-48
2024/04/09 13:12:37;;;;;;;0.82;0.40;;;;;;;;;;5452003;26;20270;-51
2024/04/09 13:15:07;;;;;;;0.50;0.50;;;;;;;;;;5451948;26;20218;-51
2024/04/09 13:17:36;;;;;;;0.88;0.88;;;;;;;;;;5466999;26;20214;-49
2024/04/09 13:20:04;;;;;;;0.35;0.35;;;;;;;;;;5454309;26;20286;-52
2024/04/09 13:22:33;;;;;;;1.40;0.70;;;;;;;;;;5486587;26;20573;-51
2024/04/09 13:25:00;;;;;;;0.77;0.75;;;;;;;;;;5476081;26;20226;-49
2024/04/09 13:27:29;;;;;;;0.50;0.50;;;;;;;;;;5451952;26;20257;-52
2024/04/09 13:29:59;;;;;;;0.40;0.40;;;;;;;;;;5477940;26;20700;-50
2024/04/09 13:32:31;;;;;;;0.57;0.50;;;;;;;;;;5488339;26;20254;-49
2024/04/09 13:34:57;;;;;;;0.52;0.50;;;;;;;;;;5484049;26;20311;-50
2024/04/09 13:37:26;;;;;;;0.60;0.60;;;;;;;;;;5455136;26;20286;-50
2024/04/09 13:39:54;;;;;;;1.00;0.32;;;;;;;;;;5451737;26;20214;-48
2024/04/09 13:42:23;;;;;;;0.95;0.38;;;;;;;;;;5453820;26;20242;-49
2024/04/09 13:44:49;;;;;;;1.67;0.90;;;;;;;;;;5453735;26;20226;-49
2024/04/09 13:47:18;;;;;;;0.55;0.55;;;;;;;;;;5482088;26;20302;-49
2024/04/09 13:49:47;;;;;;;0.60;0.60;;;;;;;;;;5451802;26;20260;-48
2024/04/09 13:52:17;;;;;;;0.55;0.50;;;;;;;;;;5451547;26;20717;-48
2024/04/09 13:54:44;;;;;;;0.82;0.77;;;;;;;;;;5451555;26;20732;-51
2024/04/09 13:57:13;;;;;;;0.73;0.60;;;;;;;;;;5466716;26;20230;-48
2024/04/09 13:59:40;;;;;;;1.23;0.57;;;;;;;;;;5466448;26;20269;-49
2024/04/09 14:02:17;;;;;;;1.45;0.40;;;;;;;;;;5452157;26;20466;-50
2024/04/09 14:04:47;;;;;;;0.40;0.40;;;;;;;;;;5472765;26;20229;-51
2024/04/09 14:07:16;;;;;;;0.65;0.52;;;;;;;;;;5455218;26;20216;-49
2024/04/09 14:09:43;;;;;;;0.40;0.40;;;;;;;;;;5453303;26;20218;-47
2024/04/09 14:12:12;;;;;;;0.52;0.50;;;;;;;;;;5452609;26;20816;-49
2024/04/09 14:14:38;;;;;;;0.20;0.20;;;;;;;;;;5465776;26;20583;-48
2024/04/09 14:17:08;;;;;;;0.43;0.43;;;;;;;;;;5451358;26;20218;-48
2024/04/09 14:19:34;;;;;;;0.50;0.50;;;;;;;;;;5451597;26;20230;-52
2024/04/09 14:22:08;;;;;;;0.35;0.35;;;;;;;;;;5465911;26;20276;-51
2024/04/09 14:24:36;;;;;;;0.82;0.57;;;;;;;;;;5451128;26;20213;-48
2024/04/09 14:27:07;;;;;;;0.60;0.60;;;;;;;;;;5451155;26;20657;-47
2024/04/09 14:29:33;;;;;;;0.90;0.70;;;;;;;;;;5451059;26;20697;-52
2024/04/09 14:32:03;;;;;;;2.17;0.90;;;;;;;;;;5465713;26;20713;-48
2024/04/09 14:34:29;;;;;;;0.65;0.52;;;;;;;;;;5464209;26;20237;-49
2024/04/09 14:36:59;;;;;;;2.15;0.70;;;;;;;;;;5462068;26;20237;-50
2024/04/09 14:39:28;;;;;;;0.68;0.60;;;;;;;;;;5466952;26;20238;-48
2024/04/09 14:41:57;;;;;;;1.13;0.55;;;;;;;;;;5450348;26;20230;-48
2024/04/09 14:44:23;;;;;;;0.80;0.80;;;;;;;;;;5467221;26;20218;-48
2024/04/09 14:46:52;;;;;;;0.82;0.75;;;;;;;;;;5450788;26;20576;-52
2024/04/09 14:49:19;;;;;;;0.65;0.60;;;;;;;;;;5465835;26;20255;-50